createdAt,value
2022-12-27T00:02:21.717Z,101027.50
2022-12-27T00:05:43.686Z,101030.75
2022-12-27T00:09:04.649Z,101028.59
2022-12-27T00:12:24.617Z,101023.31
2022-12-27T00:15:35.404Z,101009.56
2022-12-27T00:18:43.193Z,101007.13
2022-12-27T00:21:46.664Z,101000.94
2022-12-27T00:24:55.979Z,100992.59
2022-12-27T00:28:18.471Z,100998.38
2022-12-27T00:31:52.507Z,100999.78
2022-12-27T00:35:12.572Z,101006.63
2022-12-27T00:38:37.196Z,101006.97
2022-12-27T00:41:53.618Z,101007.72
2022-12-27T00:45:02.949Z,100995.13
2022-12-27T00:48:25.427Z,100975.56
2022-12-27T00:52:01.445Z,100966.28
2022-12-27T00:55:15.165Z,100979.69
2022-12-27T00:58:40.842Z,100978.94
2022-12-27T01:01:53.445Z,100970.22
2022-12-27T01:04:57.740Z,100979.84
2022-12-27T01:08:07.870Z,100977.09
2022-12-27T01:11:15.443Z,100952.84
2022-12-27T01:14:18.723Z,100952.09
2022-12-27T01:17:26.969Z,100947.50
2022-12-27T01:20:38.334Z,100934.91
2022-12-27T01:24:02.331Z,100950.56
2022-12-27T01:27:31.295Z,100944.41
2022-12-27T01:30:54.279Z,100950.38
2022-12-27T01:34:05.203Z,100939.34
2022-12-27T01:37:07.987Z,100955.06
2022-12-27T01:40:18.926Z,100958.78
2022-12-27T01:43:52.283Z,100951.31
2022-12-27T01:47:32.289Z,100952.47
2022-12-27T01:51:10.286Z,100949.50
2022-12-27T01:54:31.242Z,100955.00
2022-12-27T01:57:53.258Z,100966.63
2022-12-27T02:01:17.716Z,100967.22
2022-12-27T02:04:39.436Z,100954.50
2022-12-27T02:08:15.520Z,100961.09
2022-12-27T02:11:48.367Z,100964.59
2022-12-27T02:14:53.080Z,100970.19
2022-12-27T02:18:10.229Z,100967.97
2022-12-27T02:21:33.392Z,100979.06
2022-12-27T02:25:40.227Z,100979.63
2022-12-27T02:29:23.062Z,100982.88
2022-12-27T02:32:56.115Z,100983.16
2022-12-27T02:36:13.272Z,100976.66
2022-12-27T02:39:19.499Z,100975.28
2022-12-27T02:42:47.168Z,100959.34
2022-12-27T02:46:28.534Z,100949.63
2022-12-27T02:49:56.643Z,100949.88
2022-12-27T02:53:08.142Z,100945.81
2022-12-27T02:56:52.149Z,100943.97
2022-12-27T03:00:41.947Z,100955.88
2022-12-27T03:04:10.177Z,100956.13
2022-12-27T03:07:48.867Z,100959.09
2022-12-27T03:11:25.911Z,100967.78
2022-12-27T03:15:09.100Z,100975.06
2022-12-27T03:18:22.784Z,100972.38
2022-12-27T03:22:02.688Z,100976.22
2022-12-27T03:25:25.669Z,100981.94
2022-12-27T03:28:52.996Z,100981.41
2022-12-27T03:32:18.475Z,100983.03
2022-12-27T03:35:28.492Z,100982.19
2022-12-27T03:38:43.550Z,100991.94
2022-12-27T03:42:13.204Z,100996.22
2022-12-27T03:45:21.838Z,101003.19
2022-12-27T03:48:29.295Z,101005.31
2022-12-27T03:52:21.215Z,101008.44
2022-12-27T03:55:33.170Z,101020.56
2022-12-27T03:58:37.500Z,101017.91
2022-12-27T04:01:54.168Z,101017.28
2022-12-27T04:04:57.120Z,101008.69
2022-12-27T04:08:32.963Z,101020.09
2022-12-27T04:12:12.767Z,101013.03
2022-12-27T04:15:45.644Z,101022.75
2022-12-27T04:19:08.262Z,101021.66
2022-12-27T04:22:32.960Z,101028.72
2022-12-27T04:25:55.014Z,101039.03
2022-12-27T04:29:20.003Z,101035.22
2022-12-27T04:32:42.755Z,101050.38
2022-12-27T04:35:49.630Z,101055.22
2022-12-27T04:38:56.719Z,101057.06
2022-12-27T04:42:33.065Z,101065.97
2022-12-27T04:45:57.825Z,101065.19
2022-12-27T04:49:31.889Z,101071.09
2022-12-27T04:52:53.912Z,101087.09
2022-12-27T04:55:57.680Z,101083.63
2022-12-27T04:59:30.020Z,101094.19
2022-12-27T05:02:36.806Z,101101.56
2022-12-27T05:05:51.014Z,101107.81
2022-12-27T05:09:23.128Z,101125.16
2022-12-27T05:12:49.048Z,101119.44
2022-12-27T05:15:55.613Z,101123.78
2022-12-27T05:19:10.946Z,101126.22
2022-12-27T05:22:41.241Z,101125.41
2022-12-27T05:25:54.125Z,101127.56
2022-12-27T05:28:58.838Z,101138.94
2022-12-27T05:32:13.095Z,101137.34
2022-12-27T05:35:30.413Z,101121.88
2022-12-27T05:38:51.667Z,101141.31
2022-12-27T05:42:14.738Z,101142.94
2022-12-27T05:45:37.545Z,101165.19
2022-12-27T05:48:59.491Z,101157.59
2022-12-27T05:52:21.478Z,101162.97
2022-12-27T05:55:44.692Z,101170.59
2022-12-27T05:58:55.545Z,101184.06
2022-12-27T06:02:18.752Z,101197.59
2022-12-27T06:05:51.619Z,101190.84
2022-12-27T06:09:14.763Z,101192.47
2022-12-27T06:12:35.717Z,101189.91
2022-12-27T06:15:51.603Z,101200.69
2022-12-27T06:19:20.669Z,101210.31
2022-12-27T06:22:43.506Z,101203.69
2022-12-27T06:26:05.532Z,101211.66
2022-12-27T06:29:28.626Z,101217.59
2022-12-27T06:32:53.623Z,101228.63
2022-12-27T06:36:12.805Z,101235.75
2022-12-27T06:39:35.558Z,101229.09
2022-12-27T06:42:58.632Z,101227.22
2022-12-27T06:46:17.001Z,101236.41
2022-12-27T06:49:41.573Z,101249.44
2022-12-27T06:52:58.668Z,101259.31
2022-12-27T06:56:23.561Z,101252.31
2022-12-27T06:59:51.002Z,101252.28
2022-12-27T07:03:09.732Z,101263.97
2022-12-27T07:06:30.540Z,101273.75
2022-12-27T07:09:33.751Z,101264.59
2022-12-27T07:12:37.805Z,101263.53
2022-12-27T07:15:47.087Z,101271.38
2022-12-27T07:19:12.441Z,101270.56
2022-12-27T07:22:39.154Z,101271.66
2022-12-27T07:25:49.106Z,101277.34
2022-12-27T07:29:09.501Z,101289.53
2022-12-27T07:32:19.115Z,101284.66
2022-12-27T07:35:29.918Z,101291.69
2022-12-27T07:38:34.944Z,101306.59
2022-12-27T07:41:41.878Z,101291.16
2022-12-27T07:44:44.563Z,101307.13
2022-12-27T07:47:59.289Z,101320.66
2022-12-27T07:51:21.218Z,101317.16
2022-12-27T07:54:42.270Z,101326.63
2022-12-27T07:57:58.693Z,101329.34
2022-12-27T08:01:21.529Z,101348.31
2022-12-27T08:04:38.388Z,101371.16
2022-12-27T08:08:01.308Z,101378.81
2022-12-27T08:11:18.001Z,101372.28
2022-12-27T08:14:34.376Z,101381.88
2022-12-27T08:18:10.304Z,101405.44
2022-12-27T08:21:38.336Z,101410.78
2022-12-27T08:25:04.399Z,101444.00
2022-12-27T08:28:11.558Z,101421.13
2022-12-27T08:31:15.525Z,101407.03
2022-12-27T08:34:20.186Z,101439.41
2022-12-27T08:37:36.613Z,101463.31
2022-12-27T08:41:00.400Z,101454.16
2022-12-27T08:44:12.898Z,101463.88
2022-12-27T08:47:15.725Z,101453.94
2022-12-27T08:50:18.553Z,101441.44
2022-12-27T08:53:41.337Z,101441.63
2022-12-27T08:57:05.255Z,101466.59
2022-12-27T09:00:27.254Z,101454.69
2022-12-27T09:03:51.222Z,101454.41
2022-12-27T09:07:13.238Z,101410.59
2022-12-27T09:10:33.179Z,101445.00
2022-12-27T09:13:56.202Z,101451.75
2022-12-27T09:17:13.877Z,101443.59
2022-12-27T09:20:34.264Z,101442.78
2022-12-27T09:23:55.430Z,101453.31
2022-12-27T09:27:15.155Z,101450.09
2022-12-27T09:30:35.296Z,101472.56
2022-12-27T09:33:42.470Z,101482.78
2022-12-27T09:36:45.257Z,101461.09
2022-12-27T09:39:54.856Z,101504.41
2022-12-27T09:43:27.205Z,101484.84
2022-12-27T09:46:54.879Z,101488.06
2022-12-27T09:50:15.035Z,101485.34
2022-12-27T09:53:41.165Z,101492.34
2022-12-27T09:57:18.496Z,101502.13
2022-12-27T10:00:34.199Z,101504.41
2022-12-27T10:03:49.946Z,101506.88
2022-12-27T10:07:21.003Z,101508.59
2022-12-27T10:10:28.491Z,101508.59
2022-12-27T10:14:01.015Z,101515.41
2022-12-27T10:17:41.289Z,101523.47
2022-12-27T10:20:59.598Z,101526.63
2022-12-27T10:24:31.428Z,101548.50
2022-12-27T10:27:35.298Z,101550.69
2022-12-27T10:30:43.193Z,101545.69
2022-12-27T10:34:10.348Z,101566.22
2022-12-27T10:37:28.050Z,101560.41
2022-12-27T10:40:58.890Z,101562.22
2022-12-27T10:44:13.184Z,101581.66
2022-12-27T10:47:17.066Z,101570.78
2022-12-27T10:50:23.548Z,101567.06
2022-12-27T10:53:33.014Z,101576.19
2022-12-27T10:56:44.506Z,101569.78
2022-12-27T11:00:21.739Z,101542.50
2022-12-27T11:03:43.618Z,101569.78
2022-12-27T11:07:03.695Z,101570.09
2022-12-27T11:10:23.785Z,101576.75
2022-12-27T11:13:41.820Z,101553.19
2022-12-27T11:17:07.461Z,101551.75
2022-12-27T11:20:26.611Z,101562.06
2022-12-27T11:23:53.471Z,101549.66
2022-12-27T11:27:15.417Z,101553.97
2022-12-27T11:30:43.587Z,101567.06
2022-12-27T11:34:00.442Z,101567.78
2022-12-27T11:37:22.637Z,101552.81
2022-12-27T11:40:43.403Z,101558.31
2022-12-27T11:44:19.783Z,101542.69
2022-12-27T11:47:50.162Z,101548.19
2022-12-27T11:51:16.998Z,101551.88
2022-12-27T11:54:40.810Z,101545.63
2022-12-27T11:58:13.715Z,101562.03
2022-12-27T12:01:42.017Z,101573.47
2022-12-27T12:05:01.116Z,101582.41
2022-12-27T12:09:00.739Z,101573.13
2022-12-27T12:12:48.603Z,101587.06
2022-12-27T12:16:19.797Z,101584.53
2022-12-27T12:20:10.991Z,101571.16
2022-12-27T12:23:32.368Z,101552.56
2022-12-27T12:26:55.661Z,101551.34
2022-12-27T12:30:27.026Z,101551.50
2022-12-27T12:33:43.208Z,101549.97
2022-12-27T12:37:14.604Z,101552.31
2022-12-27T12:41:01.688Z,101570.59
2022-12-27T12:44:43.633Z,101561.03
2022-12-27T12:48:20.724Z,101568.13
2022-12-27T12:52:18.779Z,101562.16
2022-12-27T12:55:38.452Z,101562.78
2022-12-27T12:59:17.500Z,101562.16
2022-12-27T13:03:04.869Z,101568.63
2022-12-27T13:06:23.580Z,101579.81
2022-12-27T13:09:50.420Z,101598.28
2022-12-27T13:13:14.628Z,101594.31
2022-12-27T13:16:52.752Z,101596.91
2022-12-27T13:20:11.043Z,101607.81
2022-12-27T13:23:44.816Z,101618.88
2022-12-27T13:27:54.199Z,101609.59
2022-12-27T13:31:48.514Z,101621.09
2022-12-27T13:35:23.728Z,101615.84
2022-12-27T13:38:50.789Z,101618.47
2022-12-27T13:42:23.972Z,101612.50
2022-12-27T13:45:52.089Z,101613.47
2022-12-27T13:49:29.043Z,101617.44
2022-12-27T13:53:03.472Z,101636.94
2022-12-27T13:56:53.905Z,101622.31
2022-12-27T14:00:09.164Z,101623.78
2022-12-27T14:03:35.034Z,101640.88
2022-12-27T14:07:20.691Z,101658.56
2022-12-27T14:10:37.760Z,101665.13
2022-12-27T14:13:51.571Z,101672.88
2022-12-27T14:17:06.300Z,101680.59
2022-12-27T14:20:28.334Z,101684.59
2022-12-27T14:24:01.312Z,101691.16
2022-12-27T14:27:20.770Z,101687.41
2022-12-27T14:30:38.102Z,101686.72
2022-12-27T14:33:50.594Z,101699.03
2022-12-27T14:37:05.858Z,101704.91
2022-12-27T14:40:36.981Z,101715.06
2022-12-27T14:44:02.642Z,101707.50
2022-12-27T14:47:38.985Z,101725.16
2022-12-27T14:51:02.923Z,101733.50
2022-12-27T14:54:27.516Z,101727.84
2022-12-27T14:57:51.648Z,101741.22
2022-12-27T15:01:21.344Z,101727.97
2022-12-27T15:04:49.809Z,101714.59
2022-12-27T15:08:40.320Z,101718.72
2022-12-27T15:12:22.626Z,101718.84
2022-12-27T15:15:37.680Z,101734.50
2022-12-27T15:19:14.302Z,101730.03
2022-12-27T15:22:58.562Z,101758.25
2022-12-27T15:26:40.235Z,101752.03
2022-12-27T15:30:05.925Z,101764.31
2022-12-27T15:33:37.998Z,101785.69
2022-12-27T15:36:51.202Z,101787.34
2022-12-27T15:39:54.382Z,101786.59
2022-12-27T15:43:04.253Z,101786.75
2022-12-27T15:46:46.658Z,101792.75
2022-12-27T15:50:20.893Z,101785.59
2022-12-27T15:53:39.861Z,101790.00
2022-12-27T15:57:04.050Z,101807.06
2022-12-27T16:00:33.376Z,101803.09
2022-12-27T16:03:53.061Z,101808.38
2022-12-27T16:07:02.242Z,101814.31
2022-12-27T16:10:30.137Z,101806.06
2022-12-27T16:13:49.843Z,101816.44
2022-12-27T16:17:52.288Z,101813.03
2022-12-27T16:21:21.201Z,101808.78
2022-12-27T16:24:35.289Z,101812.81
2022-12-27T16:27:43.477Z,101817.88
2022-12-27T16:30:50.257Z,101819.75
2022-12-27T16:34:11.823Z,101816.34
2022-12-27T16:37:44.485Z,101824.38
2022-12-27T16:41:15.194Z,101821.19
2022-12-27T16:44:25.298Z,101825.66
2022-12-27T16:47:54.173Z,101816.75
2022-12-27T16:51:15.990Z,101808.25
2022-12-27T16:55:04.231Z,101810.47
2022-12-27T16:58:24.666Z,101819.22
2022-12-27T17:01:34.477Z,101825.50
2022-12-27T17:05:00.872Z,101828.19
2022-12-27T17:08:18.620Z,101822.28
2022-12-27T17:11:29.831Z,101840.97
2022-12-27T17:14:46.108Z,101840.06
2022-12-27T17:18:05.219Z,101838.66
2022-12-27T17:21:37.538Z,101837.25
2022-12-27T17:24:51.166Z,101841.44
2022-12-27T17:28:31.007Z,101844.72
2022-12-27T17:32:02.752Z,101848.44
2022-12-27T17:35:29.197Z,101840.09
2022-12-27T17:39:08.853Z,101847.03
2022-12-27T17:42:49.418Z,101856.00
2022-12-27T17:46:16.366Z,101857.78
2022-12-27T17:49:29.219Z,101862.63
2022-12-27T17:52:55.578Z,101862.50
2022-12-27T17:56:41.802Z,101861.63
2022-12-27T18:00:02.949Z,101869.75
2022-12-27T18:03:27.149Z,101876.44
2022-12-27T18:06:30.808Z,101885.06
2022-12-27T18:09:39.844Z,101889.16
2022-12-27T18:12:53.644Z,101890.22
2022-12-27T18:16:16.686Z,101893.97
2022-12-27T18:19:31.149Z,101899.22
2022-12-27T18:22:54.691Z,101900.22
2022-12-27T18:26:24.481Z,101904.44
2022-12-27T18:29:45.493Z,101911.50
2022-12-27T18:33:07.539Z,101899.50
2022-12-27T18:36:38.833Z,101901.53
2022-12-27T18:40:04.817Z,101907.13
2022-12-27T18:43:15.475Z,101917.97
2022-12-27T18:46:38.899Z,101922.94
2022-12-27T18:50:02.826Z,101924.38
2022-12-27T18:53:22.660Z,101931.00
2022-12-27T18:56:45.734Z,101925.63
2022-12-27T19:00:21.821Z,101930.78
2022-12-27T19:03:32.717Z,101938.69
2022-12-27T19:07:01.802Z,101939.56
2022-12-27T19:10:05.430Z,101941.84
2022-12-27T19:13:53.055Z,101940.59
2022-12-27T19:17:02.867Z,101935.25
2022-12-27T19:20:29.959Z,101936.72
2022-12-27T19:23:49.089Z,101935.66
2022-12-27T19:27:15.708Z,101938.97
2022-12-27T19:30:33.646Z,101932.19
2022-12-27T19:33:54.671Z,101920.25
2022-12-27T19:37:05.674Z,101927.47
2022-12-27T19:40:14.901Z,101915.28
2022-12-27T19:43:20.186Z,101924.38
2022-12-27T19:46:33.254Z,101927.28
2022-12-27T19:49:49.585Z,101931.41
2022-12-27T19:53:13.148Z,101946.69
2022-12-27T19:56:23.138Z,101948.13
2022-12-27T19:59:26.107Z,101951.41
2022-12-27T20:02:31.085Z,101939.44
2022-12-27T20:06:14.984Z,101930.38
2022-12-27T20:09:19.609Z,101926.88
2022-12-27T20:12:26.006Z,101923.56
2022-12-27T20:15:42.632Z,101928.31
2022-12-27T20:19:06.410Z,101928.53
2022-12-27T20:22:26.582Z,101928.56
2022-12-27T20:25:35.209Z,101939.72
2022-12-27T20:28:43.140Z,101934.53
2022-12-27T20:31:59.659Z,101939.31
2022-12-27T20:35:19.437Z,101946.28
2022-12-27T20:38:44.117Z,101945.97
2022-12-27T20:41:56.051Z,101954.16
2022-12-27T20:45:20.389Z,101938.91
2022-12-27T20:48:52.370Z,101946.59
2022-12-27T20:52:12.554Z,101952.03
2022-12-27T20:55:26.223Z,101956.81
2022-12-27T20:58:49.269Z,101954.56
2022-12-27T21:02:13.503Z,101947.91
2022-12-27T21:05:29.434Z,101951.84
2022-12-27T21:08:38.692Z,101943.56
2022-12-27T21:11:54.002Z,101951.59
2022-12-27T21:15:08.164Z,101960.47
2022-12-27T21:18:20.847Z,101965.16
2022-12-27T21:21:28.863Z,101972.41
2022-12-27T21:24:34.175Z,101972.81
2022-12-27T21:27:41.806Z,101965.16
2022-12-27T21:31:05.300Z,101966.25
2022-12-27T21:34:26.258Z,101965.88
2022-12-27T21:37:48.246Z,101964.22
2022-12-27T21:41:12.407Z,101974.09
2022-12-27T21:44:33.271Z,101970.19
2022-12-27T21:47:54.260Z,101971.81
2022-12-27T21:51:19.351Z,101976.38
2022-12-27T21:54:39.200Z,101973.72
2022-12-27T21:57:59.213Z,101968.97
2022-12-27T22:01:19.466Z,101968.59
2022-12-27T22:04:42.266Z,101959.31
2022-12-27T22:08:07.260Z,101965.50
2022-12-27T22:11:28.167Z,101969.63
2022-12-27T22:14:51.131Z,101967.56
2022-12-27T22:18:08.248Z,101970.88
2022-12-27T22:21:27.350Z,101981.16
2022-12-27T22:24:51.148Z,101964.88
2022-12-27T22:28:11.331Z,101977.66
2022-12-27T22:31:20.346Z,101971.69
2022-12-27T22:34:24.252Z,101971.06
2022-12-27T22:37:40.923Z,101977.66
2022-12-27T22:41:04.103Z,101973.94
2022-12-27T22:44:28.801Z,101970.66
2022-12-27T22:47:49.887Z,101968.59
2022-12-27T22:51:11.904Z,101960.34
2022-12-27T22:55:05.400Z,101951.66
2022-12-27T22:57:57.141Z,101949.81
2022-12-27T23:01:00.838Z,101958.06
2022-12-27T23:04:06.491Z,101959.47
2022-12-27T23:08:04.220Z,101954.72
2022-12-27T23:11:26.879Z,101960.06
2022-12-27T23:14:47.967Z,101955.94
2022-12-27T23:18:04.139Z,101957.13
2022-12-27T23:21:28.037Z,101947.50
2022-12-27T23:24:54.929Z,101945.00
2022-12-27T23:28:17.182Z,101942.72
2022-12-27T23:31:26.961Z,101942.09
2022-12-27T23:34:29.982Z,101938.59
2022-12-27T23:37:34.915Z,101939.84
2022-12-27T23:40:39.764Z,101929.13
2022-12-27T23:43:52.864Z,101926.66
2022-12-27T23:46:56.459Z,101924.41
2022-12-27T23:50:17.352Z,101919.44
2022-12-27T23:53:36.017Z,101920.06
2022-12-27T23:56:56.968Z,101922.88
